Terminal Aerodrome Forecast
Issued by NWS

Home | Current Version | Previous Version | Text Only | Print | Product List | Glossary On
Versions: 1 2 3 4 5 6 7 8 9 10 11 12 13 14 15
000
FTUS45 KCYS 092320
TAFAIA
TAF
KAIA 092320Z 1000/1024 09009KT P6SM OVC100
     FM100600 12006KT 6SM BR BKN025
     FM101300 10008KT 4SM -RA BR OVC015
     FM101400 11009KT 1 1/2SM -RA BR OVC007=

USA.gov is the U.S. government's official web portal to all federal, state and local government web resources and services.